Huvudsida
METAR-TAF:

METAR-TAF

Flygplatser :

Andøya flygplats. Andenes

Andøya, Norge

latitud: 69-18N, longitud: 016-09E, höjd: 1 m

Aktuellt väderrapport

Denna rapport gjordes för 37 minuter sedan, klockan 03:20 UTC
Vind 15 kt från nord/nordost
Temperatur -2°C
Fuktighet 59%
Tryck 993 hPa
Sikt 10 km eller mer

METAR: ENAN 190320Z AUTO 02015KT 9999 FEW039/// BKN055/// M02/M09 Q0993

Tid: 04:57 (03:57 UTC)

Väderprognos

Prognos gäller från 19 kl. 00 UTC till 19 kl. 24 UTC
Vind 15 kt från nord/nordost
Sikt 10 km eller mer
Få moln på en höjd av 1200 ft, Cumulonimbus.
Brutna moln på en höjd av 4000 ft
Temporärt
från 19 kl. 00 UTC till 19 kl. 24 UTC
Sikt: 1200 m
på en höjd av 800 ft
snöbyar
Blir
från 19 kl. 08 UTC till 19 kl. 11 UTC
Vind 9 kt från väst
Blir
från 19 kl. 15 UTC till 19 kl. 18 UTC
Vind 12 kt från syd/sydväst

TAF: ENAN 1900/1924 02015KT 9999 FEW012CB BKN040 TEMPO 1900/1924 1200 SHSN VV008 BECMG 1908/1911 27009KT BECMG 1915/1918 21012KT

Aktuella väderrapporter och prognoser från 4000 flygplatser (METAR- och TAF-rapporter).

De tillgängliga stationerna syns som gula och röda prickar på kartan.

För musen över prickarna för att se namnen på stationerna.

Klicka sedan för att få väderrapporter och prognoser.

För att ändra kartan: Klicka på de gröna knapparna med ett svart kors på för att zooma in; den gröna knappen med ett streck på för att zooma ut; eller på de gröna pilarna för angränsande kartor.


METAR-TAF: